LRSV/SCV METAR and TAF weather

Enter ICAO airport designator
Station Type Date Time Source
LRSV METAR 2020/07/05 02:00 UTC NOAA

LRSV 050200Z 33007KT 9999 SCT048 17/16 Q1015


Station Type Date Time Source
LRSV Decoded METAR 2020/07/05 02:00 UTC NOAA

Suceava / Salcea, Romania (LRSV) 47-39N 026-15E 351M
Jul 04, 2020 - 10:00 PM EDT / 2020.07.05 0200 UTC
Wind: from the NNW (330 degrees) at 8 MPH (7 KT):0
Visibility: greater than 7 mile(s):0
Sky conditions: partly cloudy
Temperature: 62 F (17 C)
Dew Point: 60 F (16 C)
Relative Humidity: 93%
Pressure (altimeter): 29.97 in. Hg (1015 hPa)
ob: LRSV 050200Z 33007KT 9999 SCT048 17/16 Q1015
cycle: 2

Station Type Date Time Source
LRSV TAF 2014/07/19 18:48 UTC NOAA

TAF LRSV 191800Z 1918/2024 CNL

Example: see airport list